createdAt,value
2023-02-23T00:00:30.310Z,51.35
2023-02-23T00:03:00.415Z,51.81
2023-02-23T00:05:37.018Z,51.60
2023-02-23T00:08:04.770Z,51.84
2023-02-23T00:14:31.636Z,52.06
2023-02-23T00:16:59.011Z,52.33
2023-02-23T00:19:26.427Z,52.32
2023-02-23T00:21:54.666Z,52.12
2023-02-23T00:24:22.725Z,52.06
2023-02-23T00:26:50.220Z,52.12
2023-02-23T00:29:24.634Z,51.83
2023-02-23T00:31:52.992Z,51.63
2023-02-23T00:34:21.932Z,51.84
2023-02-23T00:36:54.792Z,51.82
2023-02-23T00:39:23.532Z,51.74
2023-02-23T00:41:52.577Z,51.80
2023-02-23T00:44:22.033Z,52.06
2023-02-23T00:46:50.580Z,51.77
2023-02-23T00:49:20.350Z,51.95
2023-02-23T00:55:55.825Z,51.93
2023-02-23T00:58:25.195Z,52.00
2023-02-23T01:00:53.643Z,52.01
2023-02-23T01:03:21.127Z,52.00
2023-02-23T01:05:48.528Z,52.32
2023-02-23T01:08:16.344Z,52.01
2023-02-23T01:10:45.410Z,51.78
2023-02-23T01:13:13.455Z,51.83
2023-02-23T01:15:44.776Z,52.00
2023-02-23T01:18:12.080Z,52.43
2023-02-23T01:20:40.356Z,52.35
2023-02-23T01:23:14.630Z,51.86
2023-02-23T01:25:45.208Z,51.77
2023-02-23T01:28:12.938Z,51.68
2023-02-23T01:30:41.048Z,51.29
2023-02-23T01:33:08.865Z,50.81
2023-02-23T01:35:36.410Z,51.09
2023-02-23T01:38:04.198Z,50.91
2023-02-23T01:40:32.930Z,50.96
2023-02-23T01:43:19.979Z,50.69
2023-02-23T01:45:47.636Z,51.04
2023-02-23T01:48:23.449Z,50.77
2023-02-23T01:50:59.108Z,51.08
2023-02-23T01:53:33.041Z,50.69
2023-02-23T01:56:09.909Z,50.84
2023-02-23T01:58:41.069Z,50.56
2023-02-23T02:01:08.498Z,50.68
2023-02-23T02:03:41.822Z,51.05
2023-02-23T02:06:14.439Z,51.38
2023-02-23T02:08:47.254Z,51.27
2023-02-23T02:15:15.086Z,51.34
2023-02-23T02:18:05.905Z,51.42
2023-02-23T02:20:48.158Z,51.34
2023-02-23T02:24:14.530Z,51.36
2023-02-23T02:27:15.873Z,51.98
2023-02-23T02:30:19.972Z,52.09
2023-02-23T02:33:04.881Z,51.88
2023-02-23T02:35:42.525Z,51.72
2023-02-23T02:38:31.215Z,51.46
2023-02-23T02:41:57.254Z,51.51
2023-02-23T02:44:37.584Z,51.90
2023-02-23T02:47:19.742Z,52.14
2023-02-23T02:50:06.062Z,52.21
2023-02-23T02:52:41.239Z,51.89
2023-02-23T02:55:47.326Z,52.01
2023-02-23T02:58:18.437Z,52.19
2023-02-23T03:00:50.383Z,52.20
2023-02-23T03:03:45.176Z,52.27
2023-02-23T03:06:12.536Z,51.53
2023-02-23T03:09:34.948Z,51.52
2023-02-23T03:12:11.114Z,51.90
2023-02-23T03:15:05.069Z,51.87
2023-02-23T03:18:00.744Z,52.10
2023-02-23T03:20:33.911Z,52.28
2023-02-23T03:24:01.797Z,52.16
2023-02-23T03:26:39.651Z,52.00
2023-02-23T03:29:31.456Z,52.03
2023-02-23T03:32:12.713Z,52.12
2023-02-23T03:35:07.175Z,52.35
2023-02-23T03:37:42.790Z,52.26
2023-02-23T03:40:27.290Z,52.78
2023-02-23T03:42:59.763Z,52.60
2023-02-23T03:45:30.226Z,52.43
2023-02-23T03:48:00.385Z,52.38
2023-02-23T03:50:57.014Z,52.17
2023-02-23T03:53:38.081Z,52.58
2023-02-23T03:56:09.663Z,52.33
2023-02-23T03:58:50.903Z,52.61
2023-02-23T04:01:21.966Z,52.30
2023-02-23T04:03:53.856Z,52.07
2023-02-23T04:06:28.498Z,52.65
2023-02-23T04:09:02.653Z,52.69
2023-02-23T04:12:09.900Z,52.47
2023-02-23T04:14:49.015Z,52.84
2023-02-23T04:17:18.025Z,52.53
2023-02-23T04:23:57.230Z,53.15
2023-02-23T04:26:24.523Z,53.14
2023-02-23T04:28:51.737Z,53.30
2023-02-23T04:31:19.257Z,53.34
2023-02-23T04:33:46.772Z,53.34
2023-02-23T04:36:14.205Z,53.29
2023-02-23T04:38:41.709Z,53.30
2023-02-23T04:41:09.397Z,53.22
2023-02-23T04:43:36.635Z,53.23
2023-02-23T04:46:04.023Z,53.49
2023-02-23T04:48:31.527Z,53.56
2023-02-23T04:50:58.724Z,53.40
2023-02-23T04:53:25.988Z,53.76
2023-02-23T04:55:53.316Z,53.74
2023-02-23T04:58:20.688Z,53.94
2023-02-23T05:00:48.012Z,53.96
2023-02-23T05:03:15.750Z,53.59
2023-02-23T05:05:43.840Z,53.84
2023-02-23T05:08:11.105Z,53.53
2023-02-23T05:10:40.260Z,53.74
2023-02-23T05:13:07.914Z,53.61
2023-02-23T05:15:35.173Z,53.62
2023-02-23T05:18:02.449Z,53.20
2023-02-23T05:20:29.700Z,53.05
2023-02-23T05:22:57.003Z,52.96
2023-02-23T05:25:24.440Z,53.16
2023-02-23T05:27:51.859Z,53.21
2023-02-23T05:30:19.238Z,53.57
2023-02-23T05:32:46.920Z,53.62
2023-02-23T05:39:14.297Z,53.92
2023-02-23T05:41:41.618Z,53.89
2023-02-23T05:48:24.041Z,54.25
2023-02-23T05:50:51.320Z,54.13
2023-02-23T05:53:18.507Z,54.34
2023-02-23T05:55:45.871Z,54.37
2023-02-23T06:02:19.381Z,54.84
2023-02-23T06:04:46.700Z,54.95
2023-02-23T06:07:13.894Z,54.57
2023-02-23T06:09:42.412Z,54.62
2023-02-23T06:12:11.608Z,54.79
2023-02-23T06:14:39.187Z,54.62
2023-02-23T06:17:07.021Z,55.06
2023-02-23T06:19:34.658Z,55.16
2023-02-23T06:22:01.832Z,55.44
2023-02-23T06:36:36.080Z,55.48
2023-02-23T06:43:03.177Z,55.90
2023-02-23T06:45:30.633Z,55.68
2023-02-23T06:48:01.267Z,55.81
2023-02-23T06:50:29.724Z,55.65
2023-02-23T06:52:56.985Z,55.71
2023-02-23T06:55:24.964Z,55.62
2023-02-23T07:01:57.956Z,55.91
2023-02-23T07:04:25.592Z,55.94
2023-02-23T07:06:53.003Z,55.45
2023-02-23T07:17:32.876Z,55.73
2023-02-23T07:20:00.103Z,55.70
2023-02-23T07:22:27.464Z,55.47
2023-02-23T07:29:08.578Z,56.02
2023-02-23T07:31:35.851Z,55.99
2023-02-23T07:34:03.754Z,55.80
2023-02-23T07:36:31.262Z,55.71
2023-02-23T07:38:58.622Z,55.90
2023-02-23T07:41:25.937Z,55.38
2023-02-23T07:43:53.103Z,55.33
2023-02-23T07:46:20.387Z,55.30
2023-02-23T07:48:47.970Z,55.55
2023-02-23T07:51:16.723Z,55.59
2023-02-23T07:53:45.126Z,55.49
2023-02-23T08:00:19.896Z,55.83
2023-02-23T08:02:47.194Z,55.67
2023-02-23T08:05:14.366Z,55.76
2023-02-23T08:07:41.870Z,55.96
2023-02-23T08:10:10.086Z,55.90
2023-02-23T08:12:43.108Z,55.69
2023-02-23T08:15:12.612Z,55.87
2023-02-23T08:17:40.924Z,55.91
2023-02-23T08:20:09.595Z,55.54
2023-02-23T08:22:48.459Z,55.57
2023-02-23T08:25:18.229Z,55.19
2023-02-23T08:27:46.451Z,55.38
2023-02-23T08:30:15.897Z,55.07
2023-02-23T08:36:49.952Z,54.58
2023-02-23T08:39:17.443Z,54.42
2023-02-23T08:41:44.633Z,54.28
2023-02-23T08:44:15.530Z,54.21
2023-02-23T08:46:44.073Z,53.93
2023-02-23T08:49:12.303Z,53.61
2023-02-23T08:51:39.670Z,53.25
2023-02-23T08:54:08.073Z,52.94
2023-02-23T08:56:35.387Z,52.59
2023-02-23T09:03:02.460Z,51.81
2023-02-23T09:09:38.160Z,51.33
2023-02-23T09:12:05.641Z,50.88
2023-02-23T09:14:32.937Z,50.37
2023-02-23T09:17:00.177Z,49.93
2023-02-23T09:19:27.727Z,49.56
2023-02-23T09:21:54.981Z,49.19
2023-02-23T09:24:22.538Z,48.71
2023-02-23T09:26:49.901Z,48.21
2023-02-23T09:29:17.145Z,47.98
2023-02-23T09:31:44.394Z,47.68
2023-02-23T09:34:11.725Z,47.50
2023-02-23T09:36:39.294Z,48.01
2023-02-23T09:39:06.503Z,47.54
2023-02-23T09:45:58.881Z,47.06
2023-02-23T09:48:28.932Z,46.78
2023-02-23T09:51:02.311Z,46.65
2023-02-23T09:54:00.121Z,46.85
2023-02-23T10:00:27.769Z,46.31
2023-02-23T10:03:34.508Z,45.83
2023-02-23T10:06:09.297Z,45.99
2023-02-23T10:08:56.108Z,46.33
2023-02-23T10:11:41.943Z,46.14
2023-02-23T10:14:39.128Z,46.14
2023-02-23T10:17:12.457Z,45.98
2023-02-23T10:20:30.475Z,45.67
2023-02-23T10:23:04.904Z,45.60
2023-02-23T10:25:40.327Z,45.77
2023-02-23T10:28:21.181Z,45.67
2023-02-23T10:30:50.684Z,45.73
2023-02-23T10:33:33.109Z,45.69
2023-02-23T10:36:31.650Z,45.95
2023-02-23T10:38:59.497Z,46.06
2023-02-23T10:41:26.693Z,46.10
2023-02-23T10:43:54.040Z,46.02
2023-02-23T10:50:48.654Z,45.63
2023-02-23T10:57:33.622Z,45.52
2023-02-23T11:04:25.459Z,45.38
2023-02-23T11:07:11.987Z,44.82
2023-02-23T11:09:47.027Z,44.66
2023-02-23T11:12:26.525Z,44.48
2023-02-23T11:14:57.568Z,44.63
2023-02-23T11:17:36.771Z,44.93
2023-02-23T11:20:18.484Z,44.74
2023-02-23T11:22:46.183Z,44.77
2023-02-23T11:25:28.303Z,44.50
2023-02-23T11:27:57.782Z,44.64
2023-02-23T11:30:37.328Z,43.96
2023-02-23T11:33:07.667Z,42.36
2023-02-23T11:35:35.467Z,40.54
2023-02-23T11:38:21.341Z,38.38
2023-02-23T11:41:03.721Z,36.76
2023-02-23T11:47:44.860Z,32.82
2023-02-23T11:50:32.063Z,32.17
2023-02-23T11:53:16.909Z,31.03
2023-02-23T11:55:53.905Z,29.99
2023-02-23T11:58:37.100Z,29.78
2023-02-23T12:01:10.328Z,29.09
2023-02-23T12:03:46.060Z,29.03
2023-02-23T12:06:26.446Z,27.88
2023-02-23T12:08:56.685Z,27.30
2023-02-23T12:11:29.250Z,27.05
2023-02-23T12:14:16.882Z,26.56
2023-02-23T12:16:53.626Z,26.25
2023-02-23T12:19:37.151Z,26.09
2023-02-23T12:26:19.986Z,26.24
2023-02-23T12:29:06.217Z,26.17
2023-02-23T12:31:57.688Z,26.39
2023-02-23T12:34:47.656Z,26.25
2023-02-23T12:37:18.005Z,26.47
2023-02-23T12:39:54.736Z,27.08
2023-02-23T12:42:50.455Z,27.59
2023-02-23T12:45:53.696Z,28.02
2023-02-23T12:48:50.384Z,28.15
2023-02-23T12:51:39.763Z,28.14
2023-02-23T12:54:17.992Z,28.17
2023-02-23T12:57:00.636Z,28.31
2023-02-23T13:00:11.553Z,28.40
2023-02-23T13:03:12.673Z,28.64
2023-02-23T13:06:18.987Z,28.87
2023-02-23T13:09:26.225Z,28.84
2023-02-23T13:12:25.407Z,28.84
2023-02-23T13:19:38.106Z,29.50
2023-02-23T13:22:21.830Z,30.57
2023-02-23T13:24:54.081Z,30.38
2023-02-23T13:27:40.572Z,29.71
2023-02-23T13:30:12.539Z,30.34
2023-02-23T13:36:48.236Z,31.42
2023-02-23T13:40:01.197Z,30.89
2023-02-23T13:42:53.770Z,31.69
2023-02-23T13:45:51.348Z,31.56
2023-02-23T13:48:57.288Z,32.12
2023-02-23T13:51:44.987Z,31.98
2023-02-23T13:54:15.202Z,32.18
2023-02-23T13:56:54.834Z,32.61
2023-02-23T13:59:30.243Z,32.38
2023-02-23T14:02:22.633Z,32.91
2023-02-23T14:05:06.996Z,32.62
2023-02-23T14:07:42.991Z,33.81
2023-02-23T14:10:21.991Z,32.63
2023-02-23T14:13:27.838Z,33.28
2023-02-23T14:16:17.781Z,33.11
2023-02-23T14:18:54.205Z,32.61
2023-02-23T14:21:37.576Z,31.71
2023-02-23T14:24:29.395Z,31.57
2023-02-23T14:27:01.908Z,31.56
2023-02-23T14:29:31.533Z,31.27
2023-02-23T14:32:11.268Z,30.96
2023-02-23T14:34:57.335Z,30.96
2023-02-23T14:37:41.253Z,30.94
2023-02-23T14:40:31.880Z,30.72
2023-02-23T14:43:03.801Z,30.62
2023-02-23T14:45:39.112Z,30.49
2023-02-23T14:48:12.467Z,30.60
2023-02-23T14:50:40.708Z,30.85
2023-02-23T14:53:19.805Z,30.94
2023-02-23T14:55:47.294Z,31.61
2023-02-23T14:58:31.551Z,32.30
2023-02-23T15:05:17.061Z,33.73
2023-02-23T15:07:44.987Z,33.91
2023-02-23T15:10:26.294Z,34.54
2023-02-23T15:12:54.616Z,34.67
2023-02-23T15:15:26.344Z,35.15
2023-02-23T15:17:59.883Z,35.50
2023-02-23T15:23:05.808Z,36.19
2023-02-23T15:29:33.996Z,36.97
2023-02-23T15:32:30.874Z,37.37
2023-02-23T15:34:58.325Z,37.64
2023-02-23T15:40:22.591Z,38.04
2023-02-23T15:42:58.391Z,37.98
2023-02-23T15:45:35.915Z,38.36
2023-02-23T15:48:08.764Z,38.30
2023-02-23T15:50:43.783Z,38.64
2023-02-23T15:53:26.604Z,38.66
2023-02-23T15:55:57.861Z,38.58
2023-02-23T15:58:31.245Z,38.46
2023-02-23T16:01:10.522Z,38.79
2023-02-23T16:03:41.911Z,38.79
2023-02-23T16:06:22.964Z,38.95
2023-02-23T16:09:01.581Z,39.03
2023-02-23T16:11:35.561Z,39.27
2023-02-23T16:14:14.559Z,39.46
2023-02-23T16:16:41.945Z,39.34
2023-02-23T16:19:14.699Z,39.63
2023-02-23T16:21:42.053Z,39.72
2023-02-23T16:24:16.772Z,39.90
2023-02-23T16:27:01.534Z,40.05
2023-02-23T16:29:39.605Z,39.82
2023-02-23T16:32:19.358Z,40.06
2023-02-23T16:35:01.810Z,40.28
2023-02-23T16:37:29.518Z,40.33
2023-02-23T16:39:56.910Z,40.45
2023-02-23T16:42:32.882Z,40.47
2023-02-23T16:45:00.893Z,40.68
2023-02-23T16:47:47.147Z,40.90
2023-02-23T16:50:21.267Z,40.96
2023-02-23T16:52:52.124Z,40.99
2023-02-23T16:59:19.175Z,41.48
2023-02-23T17:01:46.479Z,41.48
2023-02-23T17:08:19.696Z,41.61
2023-02-23T17:10:51.660Z,41.77
2023-02-23T17:13:26.212Z,42.05
2023-02-23T17:15:55.927Z,41.95
2023-02-23T17:18:28.408Z,42.25
2023-02-23T17:25:01.407Z,42.20
2023-02-23T17:27:28.699Z,42.46
2023-02-23T17:29:57.319Z,42.79
2023-02-23T17:32:24.749Z,42.83
2023-02-23T17:34:52.111Z,42.81
2023-02-23T17:37:19.340Z,42.84
2023-02-23T17:39:46.969Z,42.90
2023-02-23T17:42:14.158Z,43.00
2023-02-23T17:44:41.601Z,43.11
2023-02-23T17:47:09.396Z,43.27
2023-02-23T17:49:37.002Z,43.24
2023-02-23T17:52:04.413Z,43.42
2023-02-23T17:54:31.747Z,43.32
2023-02-23T17:56:58.933Z,43.62
2023-02-23T17:59:26.256Z,43.54
2023-02-23T18:01:53.446Z,43.42
2023-02-23T18:04:20.699Z,43.43
2023-02-23T18:06:47.949Z,43.49
2023-02-23T18:13:14.378Z,43.79
2023-02-23T18:15:41.663Z,44.01
2023-02-23T18:18:09.075Z,44.07
2023-02-23T18:20:36.365Z,44.07
2023-02-23T18:23:03.623Z,44.26
2023-02-23T18:25:31.092Z,44.15
2023-02-23T18:27:58.310Z,44.57
2023-02-23T18:30:26.685Z,44.68
2023-02-23T18:32:58.661Z,44.53
2023-02-23T18:35:26.330Z,44.81
2023-02-23T18:37:53.609Z,44.90
2023-02-23T18:40:21.038Z,45.24
2023-02-23T18:42:49.785Z,45.00
2023-02-23T18:45:17.432Z,45.16
2023-02-23T18:47:44.721Z,45.38
2023-02-23T18:50:12.858Z,45.49
2023-02-23T18:52:40.371Z,45.67
2023-02-23T18:55:08.791Z,45.58
2023-02-23T18:57:35.913Z,45.60
2023-02-23T19:00:06.487Z,45.73
2023-02-23T19:02:33.777Z,46.01
2023-02-23T19:05:01.443Z,46.25
2023-02-23T19:07:32.505Z,46.12
2023-02-23T19:09:59.897Z,46.29
2023-02-23T19:12:30.033Z,46.40
2023-02-23T19:14:58.556Z,46.21
2023-02-23T19:17:28.124Z,46.38
2023-02-23T19:19:56.335Z,46.30
2023-02-23T19:22:23.770Z,46.42
2023-02-23T19:24:51.223Z,46.42
2023-02-23T19:27:19.444Z,46.66
2023-02-23T19:29:47.287Z,46.75
2023-02-23T19:32:16.630Z,46.66
2023-02-23T19:34:45.029Z,46.87
2023-02-23T19:37:12.887Z,46.77
2023-02-23T19:43:47.276Z,46.93
2023-02-23T19:46:17.502Z,47.24
2023-02-23T19:48:48.873Z,47.27
2023-02-23T19:51:16.440Z,47.24
2023-02-23T19:53:43.690Z,47.31
2023-02-23T19:56:13.979Z,47.07
2023-02-23T20:06:43.767Z,47.35
2023-02-23T20:09:11.780Z,47.26
2023-02-23T20:11:39.456Z,47.41
2023-02-23T20:14:07.325Z,47.38
2023-02-23T20:16:35.956Z,47.65
2023-02-23T20:19:03.817Z,47.68
2023-02-23T20:21:31.394Z,47.66
2023-02-23T20:23:59.184Z,47.81
2023-02-23T20:26:31.822Z,48.04
2023-02-23T20:28:59.015Z,48.09
2023-02-23T20:31:30.811Z,48.40
2023-02-23T20:34:02.703Z,48.38
2023-02-23T20:36:30.018Z,48.55
2023-02-23T20:38:57.205Z,48.68
2023-02-23T20:41:24.679Z,48.47
2023-02-23T20:43:52.024Z,48.41
2023-02-23T20:46:20.024Z,48.48
2023-02-23T20:48:47.550Z,48.67
2023-02-23T20:51:17.193Z,48.77
2023-02-23T20:53:47.236Z,48.73
2023-02-23T20:56:18.464Z,48.80
2023-02-23T20:58:46.441Z,49.02
2023-02-23T21:01:20.862Z,48.99
2023-02-23T21:03:56.557Z,49.02
2023-02-23T21:06:26.745Z,48.93
2023-02-23T21:08:55.409Z,49.06
2023-02-23T21:15:30.532Z,49.15
2023-02-23T21:17:59.462Z,49.09
2023-02-23T21:20:27.091Z,49.15
2023-02-23T21:22:55.768Z,49.26
2023-02-23T21:25:26.972Z,49.30
2023-02-23T21:27:54.572Z,49.51
2023-02-23T21:30:25.321Z,49.38
2023-02-23T21:32:54.245Z,49.45
2023-02-23T21:35:21.761Z,49.18
2023-02-23T21:37:51.810Z,49.16
2023-02-23T21:40:20.139Z,49.25
2023-02-23T21:42:49.554Z,49.18
2023-02-23T21:45:18.268Z,49.35
2023-02-23T21:47:49.120Z,49.31
2023-02-23T21:50:19.668Z,49.29
2023-02-23T21:52:47.963Z,49.49
2023-02-23T21:55:21.548Z,49.78
2023-02-23T21:57:50.223Z,49.72
2023-02-23T22:00:17.782Z,49.86
2023-02-23T22:02:45.397Z,49.97
2023-02-23T22:05:15.463Z,50.07
2023-02-23T22:07:49.844Z,50.15
2023-02-23T22:10:20.810Z,50.24
2023-02-23T22:12:48.628Z,50.27
2023-02-23T22:15:16.281Z,50.10
2023-02-23T22:17:44.384Z,49.88
2023-02-23T22:20:12.532Z,50.46
2023-02-23T22:22:39.727Z,50.24
2023-02-23T22:25:08.390Z,50.24
2023-02-23T22:27:35.827Z,50.41
2023-02-23T22:30:03.480Z,49.93
2023-02-23T22:32:31.114Z,49.80
2023-02-23T22:34:59.973Z,49.77
2023-02-23T22:37:28.082Z,49.85
2023-02-23T22:39:56.756Z,49.73
2023-02-23T22:42:24.209Z,49.82
2023-02-23T22:44:51.671Z,49.93
2023-02-23T22:47:18.884Z,50.05
2023-02-23T22:49:47.569Z,50.31
2023-02-23T22:52:14.976Z,49.86
2023-02-23T22:54:42.408Z,50.46
2023-02-23T22:57:09.697Z,50.39
2023-02-23T22:59:37.585Z,50.18
2023-02-23T23:02:04.924Z,50.11
2023-02-23T23:04:32.543Z,49.98
2023-02-23T23:06:59.915Z,50.23
2023-02-23T23:09:27.114Z,50.18
2023-02-23T23:11:54.304Z,50.08
2023-02-23T23:14:21.548Z,50.19
2023-02-23T23:16:48.882Z,49.73
2023-02-23T23:19:21.369Z,50.12
2023-02-23T23:21:48.693Z,49.95
2023-02-23T23:28:22.309Z,50.13
2023-02-23T23:30:49.812Z,50.44
2023-02-23T23:33:17.045Z,50.43
2023-02-23T23:35:44.535Z,50.55
2023-02-23T23:38:11.761Z,50.69
2023-02-23T23:40:38.989Z,50.65
2023-02-23T23:43:06.213Z,50.91
2023-02-23T23:45:33.727Z,50.68
2023-02-23T23:48:00.951Z,50.91
2023-02-23T23:50:28.330Z,51.05
2023-02-23T23:52:56.018Z,51.06
2023-02-23T23:55:23.304Z,50.81
2023-02-23T23:57:50.827Z,51.00
